Aviation Digital Data Service (ADDS)

Output produced by METARs form (1551 UTC 04 August 2015)
found at http://aviationweather.gov/adds/metars/
 
KSAN 041451Z 0415/0518 VRB03KT P6SM BKN010 
     FM041600 VRB04KT P6SM SCT015 
     FM041900 29010KT P6SM FEW015 
     FM050100 VRB04KT P6SM FEW012 
     FM050700 VRB03KT P6SM BKN010 
     FM051600 VRB04KT P6SM SCT012